sensor_id;sensor_type;location;lat;lon;timestamp;temperature;humidity
22456;DHT22;11395;53.204;6.502;2022-08-04T00:08:49;26.50;74.40
22456;DHT22;11395;53.204;6.502;2022-08-04T00:11:24;26.40;74.50
22456;DHT22;11395;53.204;6.502;2022-08-04T00:14:01;26.40;74.50
22456;DHT22;11395;53.204;6.502;2022-08-04T00:16:31;26.40;74.40
22456;DHT22;11395;53.204;6.502;2022-08-04T00:19:00;26.40;74.30
22456;DHT22;11395;53.204;6.502;2022-08-04T00:21:30;26.50;74.30
22456;DHT22;11395;53.204;6.502;2022-08-04T00:24:01;26.50;74.30
22456;DHT22;11395;53.204;6.502;2022-08-04T00:26:28;26.50;74.30
22456;DHT22;11395;53.204;6.502;2022-08-04T00:28:55;26.50;74.20
22456;DHT22;11395;53.204;6.502;2022-08-04T00:31:21;26.50;74.20
22456;DHT22;11395;53.204;6.502;2022-08-04T00:33:48;26.50;74.20
22456;DHT22;11395;53.204;6.502;2022-08-04T00:36:14;26.50;74.10
22456;DHT22;11395;53.204;6.502;2022-08-04T00:38:43;26.50;74.20
22456;DHT22;11395;53.204;6.502;2022-08-04T00:41:46;26.50;74.20
22456;DHT22;11395;53.204;6.502;2022-08-04T01:15:14;26.20;74.80
22456;DHT22;11395;53.204;6.502;2022-08-04T01:23:34;26.30;74.50
22456;DHT22;11395;53.204;6.502;2022-08-04T01:29:11;26.30;74.50
22456;DHT22;11395;53.204;6.502;2022-08-04T01:34:12;26.30;74.40
22456;DHT22;11395;53.204;6.502;2022-08-04T01:40:06;26.30;74.40
22456;DHT22;11395;53.204;6.502;2022-08-04T01:42:34;26.30;74.30
22456;DHT22;11395;53.204;6.502;2022-08-04T01:45:11;26.30;74.30
22456;DHT22;11395;53.204;6.502;2022-08-04T01:47:48;26.30;74.30
22456;DHT22;11395;53.204;6.502;2022-08-04T01:50:14;26.30;74.40
22456;DHT22;11395;53.204;6.502;2022-08-04T01:52:43;26.30;74.30
22456;DHT22;11395;53.204;6.502;2022-08-04T01:55:11;26.20;74.20
22456;DHT22;11395;53.204;6.502;2022-08-04T01:57:46;26.30;74.30
22456;DHT22;11395;53.204;6.502;2022-08-04T02:00:16;26.20;74.20
22456;DHT22;11395;53.204;6.502;2022-08-04T02:02:46;26.20;74.20
22456;DHT22;11395;53.204;6.502;2022-08-04T02:05:16;26.20;74.20
22456;DHT22;11395;53.204;6.502;2022-08-04T02:10:34;26.20;74.20
22456;DHT22;11395;53.204;6.502;2022-08-04T02:13:28;26.20;74.30
22456;DHT22;11395;53.204;6.502;2022-08-04T02:16:32;26.20;74.20
22456;DHT22;11395;53.204;6.502;2022-08-04T02:19:24;26.20;74.40
22456;DHT22;11395;53.204;6.502;2022-08-04T02:21:56;26.20;74.30
22456;DHT22;11395;53.204;6.502;2022-08-04T02:24:28;26.20;75.10
22456;DHT22;11395;53.204;6.502;2022-08-04T02:26:56;26.20;74.30
22456;DHT22;11395;53.204;6.502;2022-08-04T02:32:06;26.20;74.40
22456;DHT22;11395;53.204;6.502;2022-08-04T02:34:53;26.20;74.30
22456;DHT22;11395;53.204;6.502;2022-08-04T02:37:25;26.20;74.40
22456;DHT22;11395;53.204;6.502;2022-08-04T02:39:52;26.20;74.40
22456;DHT22;11395;53.204;6.502;2022-08-04T02:42:19;26.20;74.40
22456;DHT22;11395;53.204;6.502;2022-08-04T02:44:49;26.20;74.40
22456;DHT22;11395;53.204;6.502;2022-08-04T02:47:20;26.10;74.30
22456;DHT22;11395;53.204;6.502;2022-08-04T02:49:49;26.10;74.30
22456;DHT22;11395;53.204;6.502;2022-08-04T02:52:17;26.10;74.30
22456;DHT22;11395;53.204;6.502;2022-08-04T02:54:46;26.10;74.30
22456;DHT22;11395;53.204;6.502;2022-08-04T02:57:13;26.10;74.30
22456;DHT22;11395;53.204;6.502;2022-08-04T03:00:07;26.10;74.30
22456;DHT22;11395;53.204;6.502;2022-08-04T03:14:00;26.00;74.30
22456;DHT22;11395;53.204;6.502;2022-08-04T03:16:56;26.00;74.30
22456;DHT22;11395;53.204;6.502;2022-08-04T03:36:25;26.00;74.20
22456;DHT22;11395;53.204;6.502;2022-08-04T03:53:20;26.00;75.10
22456;DHT22;11395;53.204;6.502;2022-08-04T03:58:47;26.00;74.40
22456;DHT22;11395;53.204;6.502;2022-08-04T04:06:58;25.90;74.30
22456;DHT22;11395;53.204;6.502;2022-08-04T04:10:02;25.90;74.40
22456;DHT22;11395;53.204;6.502;2022-08-04T04:15:47;25.90;74.40
22456;DHT22;11395;53.204;6.502;2022-08-04T04:18:37;25.90;74.40
22456;DHT22;11395;53.204;6.502;2022-08-04T04:21:33;25.90;74.40
22456;DHT22;11395;53.204;6.502;2022-08-04T04:33:02;25.90;74.40
22456;DHT22;11395;53.204;6.502;2022-08-04T04:36:01;25.90;74.40
22456;DHT22;11395;53.204;6.502;2022-08-04T04:39:05;25.90;74.40
22456;DHT22;11395;53.204;6.502;2022-08-04T04:44:50;25.90;74.40
22456;DHT22;11395;53.204;6.502;2022-08-04T04:50:03;25.90;74.20
22456;DHT22;11395;53.204;6.502;2022-08-04T04:52:59;25.90;74.30
22456;DHT22;11395;53.204;6.502;2022-08-04T04:55:30;25.90;74.20
22456;DHT22;11395;53.204;6.502;2022-08-04T04:58:00;25.90;74.20
22456;DHT22;11395;53.204;6.502;2022-08-04T05:01:12;25.90;74.90
22456;DHT22;11395;53.204;6.502;2022-08-04T05:12:39;25.90;74.10
22456;DHT22;11395;53.204;6.502;2022-08-04T05:15:07;25.90;74.10
22456;DHT22;11395;53.204;6.502;2022-08-04T05:17:41;25.90;74.10
22456;DHT22;11395;53.204;6.502;2022-08-04T05:20:19;25.90;74.00
22456;DHT22;11395;53.204;6.502;2022-08-04T05:25:30;26.00;74.00
22456;DHT22;11395;53.204;6.502;2022-08-04T05:28:04;26.00;74.00
22456;DHT22;11395;53.204;6.502;2022-08-04T05:30:36;26.00;73.90
22456;DHT22;11395;53.204;6.502;2022-08-04T05:33:08;26.00;73.80
22456;DHT22;11395;53.204;6.502;2022-08-04T05:35:48;26.00;73.80
22456;DHT22;11395;53.204;6.502;2022-08-04T05:38:19;26.00;73.80
22456;DHT22;11395;53.204;6.502;2022-08-04T05:40:45;26.10;73.80
22456;DHT22;11395;53.204;6.502;2022-08-04T05:43:13;26.10;73.80
22456;DHT22;11395;53.204;6.502;2022-08-04T05:45:40;26.10;73.80
22456;DHT22;11395;53.204;6.502;2022-08-04T05:48:07;26.10;73.80
22456;DHT22;11395;53.204;6.502;2022-08-04T05:50:34;26.10;73.60
22456;DHT22;11395;53.204;6.502;2022-08-04T05:53:02;26.10;73.60
22456;DHT22;11395;53.204;6.502;2022-08-04T05:55:29;26.10;73.60
22456;DHT22;11395;53.204;6.502;2022-08-04T05:58:00;26.10;73.80
22456;DHT22;11395;53.204;6.502;2022-08-04T06:00:27;26.10;73.90
22456;DHT22;11395;53.204;6.502;2022-08-04T06:02:55;26.10;73.80
22456;DHT22;11395;53.204;6.502;2022-08-04T06:05:23;26.20;73.70
22456;DHT22;11395;53.204;6.502;2022-08-04T06:07:49;26.20;73.70
22456;DHT22;11395;53.204;6.502;2022-08-04T06:10:16;26.20;73.70
22456;DHT22;11395;53.204;6.502;2022-08-04T06:12:51;26.20;73.60
22456;DHT22;11395;53.204;6.502;2022-08-04T06:15:20;26.30;73.50
22456;DHT22;11395;53.204;6.502;2022-08-04T06:18:01;26.40;73.50
22456;DHT22;11395;53.204;6.502;2022-08-04T06:20:31;26.40;73.40
22456;DHT22;11395;53.204;6.502;2022-08-04T06:23:02;26.40;73.30
22456;DHT22;11395;53.204;6.502;2022-08-04T06:25:32;26.50;73.40
22456;DHT22;11395;53.204;6.502;2022-08-04T06:28:00;26.50;73.20
22456;DHT22;11395;53.204;6.502;2022-08-04T06:30:30;26.50;73.20
22456;DHT22;11395;53.204;6.502;2022-08-04T06:32:58;26.50;73.10
22456;DHT22;11395;53.204;6.502;2022-08-04T06:35:38;26.60;73.10
22456;DHT22;11395;53.204;6.502;2022-08-04T06:38:06;26.60;73.10
22456;DHT22;11395;53.204;6.502;2022-08-04T06:40:33;26.60;73.00
22456;DHT22;11395;53.204;6.502;2022-08-04T06:43:04;26.60;72.90
22456;DHT22;11395;53.204;6.502;2022-08-04T06:45:33;26.60;72.90
22456;DHT22;11395;53.204;6.502;2022-08-04T06:48:02;26.70;72.90
22456;DHT22;11395;53.204;6.502;2022-08-04T06:50:31;26.70;72.80
22456;DHT22;11395;53.204;6.502;2022-08-04T06:52:58;26.70;72.70
22456;DHT22;11395;53.204;6.502;2022-08-04T06:55:25;26.70;72.80
22456;DHT22;11395;53.204;6.502;2022-08-04T06:57:54;26.80;72.90
22456;DHT22;11395;53.204;6.502;2022-08-04T07:00:21;26.70;72.80
22456;DHT22;11395;53.204;6.502;2022-08-04T07:02:50;26.70;72.80
22456;DHT22;11395;53.204;6.502;2022-08-04T07:05:18;26.70;72.80
22456;DHT22;11395;53.204;6.502;2022-08-04T07:07:45;26.70;72.80
22456;DHT22;11395;53.204;6.502;2022-08-04T07:10:14;26.70;72.90
22456;DHT22;11395;53.204;6.502;2022-08-04T07:12:41;26.70;72.80
22456;DHT22;11395;53.204;6.502;2022-08-04T07:15:10;26.80;72.80
22456;DHT22;11395;53.204;6.502;2022-08-04T07:17:36;26.80;72.80
22456;DHT22;11395;53.204;6.502;2022-08-04T07:20:04;26.80;72.70
22456;DHT22;11395;53.204;6.502;2022-08-04T07:22:30;26.80;72.70
22456;DHT22;11395;53.204;6.502;2022-08-04T07:24:58;26.90;73.50
22456;DHT22;11395;53.204;6.502;2022-08-04T07:27:25;26.90;72.60
22456;DHT22;11395;53.204;6.502;2022-08-04T07:29:52;26.90;72.50
22456;DHT22;11395;53.204;6.502;2022-08-04T07:32:21;27.00;72.50
22456;DHT22;11395;53.204;6.502;2022-08-04T07:34:49;27.00;72.40
22456;DHT22;11395;53.204;6.502;2022-08-04T07:37:15;27.00;72.40
22456;DHT22;11395;53.204;6.502;2022-08-04T07:39:42;27.00;72.40
22456;DHT22;11395;53.204;6.502;2022-08-04T07:42:08;27.00;72.40
22456;DHT22;11395;53.204;6.502;2022-08-04T07:44:35;27.00;72.40
22456;DHT22;11395;53.204;6.502;2022-08-04T07:47:03;27.10;72.40
22456;DHT22;11395;53.204;6.502;2022-08-04T07:49:30;27.10;72.30
22456;DHT22;11395;53.204;6.502;2022-08-04T07:51:58;27.10;72.30
22456;DHT22;11395;53.204;6.502;2022-08-04T07:54:24;27.10;72.30
22456;DHT22;11395;53.204;6.502;2022-08-04T07:56:51;27.10;72.30
22456;DHT22;11395;53.204;6.502;2022-08-04T07:59:18;27.10;72.30
22456;DHT22;11395;53.204;6.502;2022-08-04T08:01:46;27.10;72.30
22456;DHT22;11395;53.204;6.502;2022-08-04T08:04:13;27.10;73.10
22456;DHT22;11395;53.204;6.502;2022-08-04T08:06:40;27.20;72.40
22456;DHT22;11395;53.204;6.502;2022-08-04T08:09:12;27.10;72.30
22456;DHT22;11395;53.204;6.502;2022-08-04T08:11:42;27.20;72.40
22456;DHT22;11395;53.204;6.502;2022-08-04T08:14:09;27.20;72.30
22456;DHT22;11395;53.204;6.502;2022-08-04T08:16:35;27.20;72.30
22456;DHT22;11395;53.204;6.502;2022-08-04T08:19:03;27.30;72.20
22456;DHT22;11395;53.204;6.502;2022-08-04T08:21:30;27.30;72.10
22456;DHT22;11395;53.204;6.502;2022-08-04T08:23:57;27.20;72.00
22456;DHT22;11395;53.204;6.502;2022-08-04T08:26:23;27.30;72.10
22456;DHT22;11395;53.204;6.502;2022-08-04T08:28:50;27.20;72.10
22456;DHT22;11395;53.204;6.502;2022-08-04T08:31:17;27.30;72.20
22456;DHT22;11395;53.204;6.502;2022-08-04T08:33:43;27.20;72.20
22456;DHT22;11395;53.204;6.502;2022-08-04T08:36:34;27.30;72.20
22456;DHT22;11395;53.204;6.502;2022-08-04T08:53:15;27.30;71.90
22456;DHT22;11395;53.204;6.502;2022-08-04T09:13:09;27.30;72.10
22456;DHT22;11395;53.204;6.502;2022-08-04T09:18:27;27.30;72.30
22456;DHT22;11395;53.204;6.502;2022-08-04T09:24:13;27.30;72.20
22456;DHT22;11395;53.204;6.502;2022-08-04T09:32:26;27.30;72.00
22456;DHT22;11395;53.204;6.502;2022-08-04T09:38:48;27.30;72.10
22456;DHT22;11395;53.204;6.502;2022-08-04T09:45:58;27.30;72.30
22456;DHT22;11395;53.204;6.502;2022-08-04T09:48:54;27.30;72.30
22456;DHT22;11395;53.204;6.502;2022-08-04T09:51:35;27.30;71.90
22456;DHT22;11395;53.204;6.502;2022-08-04T09:54:08;27.30;72.00
22456;DHT22;11395;53.204;6.502;2022-08-04T09:56:41;27.30;72.10
22456;DHT22;11395;53.204;6.502;2022-08-04T09:59:24;27.30;72.20
22456;DHT22;11395;53.204;6.502;2022-08-04T10:01:55;27.20;72.30
22456;DHT22;11395;53.204;6.502;2022-08-04T10:04:22;27.20;72.50
22456;DHT22;11395;53.204;6.502;2022-08-04T10:07:17;27.20;72.50
22456;DHT22;11395;53.204;6.502;2022-08-04T10:21:02;27.30;72.70
22456;DHT22;11395;53.204;6.502;2022-08-04T10:26:45;27.30;72.80
22456;DHT22;11395;53.204;6.502;2022-08-04T10:29:25;27.20;72.70
22456;DHT22;11395;53.204;6.502;2022-08-04T10:37:59;27.20;73.50
22456;DHT22;11395;53.204;6.502;2022-08-04T10:40:33;27.20;72.70
22456;DHT22;11395;53.204;6.502;2022-08-04T10:43:08;27.20;72.70
22456;DHT22;11395;53.204;6.502;2022-08-04T10:45:49;27.20;72.70
22456;DHT22;11395;53.204;6.502;2022-08-04T10:54:02;27.20;72.70
22456;DHT22;11395;53.204;6.502;2022-08-04T10:56:43;27.20;72.70
22456;DHT22;11395;53.204;6.502;2022-08-04T11:01:51;27.30;72.80
22456;DHT22;11395;53.204;6.502;2022-08-04T11:04:28;27.20;72.70
22456;DHT22;11395;53.204;6.502;2022-08-04T11:06:57;27.30;72.70
22456;DHT22;11395;53.204;6.502;2022-08-04T11:09:26;27.30;72.60
22456;DHT22;11395;53.204;6.502;2022-08-04T11:12:06;27.20;72.70
22456;DHT22;11395;53.204;6.502;2022-08-04T11:14:57;27.30;72.70
22456;DHT22;11395;53.204;6.502;2022-08-04T11:17:31;27.30;72.70
22456;DHT22;11395;53.204;6.502;2022-08-04T11:23:07;27.30;72.60
22456;DHT22;11395;53.204;6.502;2022-08-04T11:28:57;27.30;72.60
22456;DHT22;11395;53.204;6.502;2022-08-04T11:31:27;27.30;72.60
22456;DHT22;11395;53.204;6.502;2022-08-04T11:36:57;27.30;72.60
22456;DHT22;11395;53.204;6.502;2022-08-04T11:39:29;27.30;72.70
22456;DHT22;11395;53.204;6.502;2022-08-04T11:42:25;27.30;72.70
22456;DHT22;11395;53.204;6.502;2022-08-04T11:45:01;27.30;72.60
22456;DHT22;11395;53.204;6.502;2022-08-04T11:48:06;27.30;72.60
22456;DHT22;11395;53.204;6.502;2022-08-04T11:50:49;27.30;72.60
22456;DHT22;11395;53.204;6.502;2022-08-04T11:53:21;27.40;72.70
22456;DHT22;11395;53.204;6.502;2022-08-04T11:55:51;27.40;72.50
22456;DHT22;11395;53.204;6.502;2022-08-04T11:58:19;27.40;72.50
22456;DHT22;11395;53.204;6.502;2022-08-04T12:03:35;27.40;72.50
22456;DHT22;11395;53.204;6.502;2022-08-04T12:06:24;27.50;72.50
22456;DHT22;11395;53.204;6.502;2022-08-04T12:12:14;27.50;72.40
22456;DHT22;11395;53.204;6.502;2022-08-04T12:15:07;27.50;72.40
22456;DHT22;11395;53.204;6.502;2022-08-04T12:20:40;27.50;72.30
22456;DHT22;11395;53.204;6.502;2022-08-04T12:23:16;27.50;72.30
22456;DHT22;11395;53.204;6.502;2022-08-04T12:25:47;27.50;72.40
22456;DHT22;11395;53.204;6.502;2022-08-04T12:28:21;27.50;72.30
22456;DHT22;11395;53.204;6.502;2022-08-04T12:30:54;27.50;73.10
22456;DHT22;11395;53.204;6.502;2022-08-04T12:33:31;27.60;72.30
22456;DHT22;11395;53.204;6.502;2022-08-04T12:38:43;27.60;72.00
22456;DHT22;11395;53.204;6.502;2022-08-04T12:41:14;27.70;71.90
22456;DHT22;11395;53.204;6.502;2022-08-04T12:43:44;27.70;71.70
22456;DHT22;11395;53.204;6.502;2022-08-04T12:46:23;27.70;71.60
22456;DHT22;11395;53.204;6.502;2022-08-04T12:48:50;27.70;71.60
22456;DHT22;11395;53.204;6.502;2022-08-04T12:51:17;27.80;71.50
22456;DHT22;11395;53.204;6.502;2022-08-04T12:53:44;27.80;71.60
22456;DHT22;11395;53.204;6.502;2022-08-04T12:56:12;27.80;71.40
22456;DHT22;11395;53.204;6.502;2022-08-04T12:58:44;27.90;71.50
22456;DHT22;11395;53.204;6.502;2022-08-04T13:01:22;27.90;71.40
22456;DHT22;11395;53.204;6.502;2022-08-04T13:03:55;27.90;71.30
22456;DHT22;11395;53.204;6.502;2022-08-04T13:06:26;27.90;71.20
22456;DHT22;11395;53.204;6.502;2022-08-04T13:08:54;27.90;71.20
22456;DHT22;11395;53.204;6.502;2022-08-04T13:11:21;27.90;71.30
22456;DHT22;11395;53.204;6.502;2022-08-04T13:13:53;27.90;72.00
22456;DHT22;11395;53.204;6.502;2022-08-04T13:16:29;27.90;71.20
22456;DHT22;11395;53.204;6.502;2022-08-04T13:18:56;27.90;71.30
22456;DHT22;11395;53.204;6.502;2022-08-04T13:21:25;27.90;71.30
22456;DHT22;11395;53.204;6.502;2022-08-04T13:23:55;27.90;71.20
22456;DHT22;11395;53.204;6.502;2022-08-04T13:26:24;27.90;71.20
22456;DHT22;11395;53.204;6.502;2022-08-04T13:28:53;27.90;71.20
22456;DHT22;11395;53.204;6.502;2022-08-04T13:31:26;27.90;71.30
22456;DHT22;11395;53.204;6.502;2022-08-04T13:34:01;27.90;72.10
22456;DHT22;11395;53.204;6.502;2022-08-04T13:36:29;27.90;71.40
22456;DHT22;11395;53.204;6.502;2022-08-04T13:38:58;27.90;71.40
22456;DHT22;11395;53.204;6.502;2022-08-04T13:41:28;27.90;71.40
22456;DHT22;11395;53.204;6.502;2022-08-04T13:43:57;27.90;71.40
22456;DHT22;11395;53.204;6.502;2022-08-04T13:46:30;27.90;71.40
22456;DHT22;11395;53.204;6.502;2022-08-04T13:48:59;27.90;71.50
22456;DHT22;11395;53.204;6.502;2022-08-04T13:51:27;27.90;71.50
22456;DHT22;11395;53.204;6.502;2022-08-04T13:53:57;27.90;71.60
22456;DHT22;11395;53.204;6.502;2022-08-04T13:56:37;27.90;71.60
22456;DHT22;11395;53.204;6.502;2022-08-04T13:59:09;27.80;71.50
22456;DHT22;11395;53.204;6.502;2022-08-04T14:01:37;27.80;71.50
22456;DHT22;11395;53.204;6.502;2022-08-04T14:04:24;27.80;71.30
22456;DHT22;11395;53.204;6.502;2022-08-04T14:09:28;27.70;71.50
22456;DHT22;11395;53.204;6.502;2022-08-04T14:12:05;27.70;71.50
22456;DHT22;11395;53.204;6.502;2022-08-04T14:14:34;27.70;71.70
22456;DHT22;11395;53.204;6.502;2022-08-04T14:27:48;27.80;71.70
22456;DHT22;11395;53.204;6.502;2022-08-04T14:30:25;27.80;71.60
22456;DHT22;11395;53.204;6.502;2022-08-04T14:33:11;27.80;71.60
22456;DHT22;11395;53.204;6.502;2022-08-04T14:35:38;27.80;71.60
22456;DHT22;11395;53.204;6.502;2022-08-04T14:38:05;27.80;71.60
22456;DHT22;11395;53.204;6.502;2022-08-04T14:40:34;27.80;71.60
22456;DHT22;11395;53.204;6.502;2022-08-04T14:43:00;27.80;71.60
22456;DHT22;11395;53.204;6.502;2022-08-04T14:45:40;27.80;71.60
22456;DHT22;11395;53.204;6.502;2022-08-04T14:48:16;27.80;71.50
22456;DHT22;11395;53.204;6.502;2022-08-04T14:50:44;27.70;71.40
22456;DHT22;11395;53.204;6.502;2022-08-04T14:53:15;27.70;71.50
22456;DHT22;11395;53.204;6.502;2022-08-04T14:55:50;27.80;71.60
22456;DHT22;11395;53.204;6.502;2022-08-04T14:58:19;27.70;71.60
22456;DHT22;11395;53.204;6.502;2022-08-04T15:00:49;27.70;71.60
22456;DHT22;11395;53.204;6.502;2022-08-04T15:03:17;27.70;71.60
22456;DHT22;11395;53.204;6.502;2022-08-04T15:05:44;27.70;71.60
22456;DHT22;11395;53.204;6.502;2022-08-04T15:08:14;27.70;71.80
22456;DHT22;11395;53.204;6.502;2022-08-04T15:10:41;27.70;71.80
22456;DHT22;11395;53.204;6.502;2022-08-04T15:13:08;27.70;72.00
22456;DHT22;11395;53.204;6.502;2022-08-04T15:15:42;27.70;72.00
22456;DHT22;11395;53.204;6.502;2022-08-04T15:18:09;27.80;72.10
22456;DHT22;11395;53.204;6.502;2022-08-04T15:20:36;27.80;72.10
22456;DHT22;11395;53.204;6.502;2022-08-04T15:23:04;27.80;72.00
22456;DHT22;11395;53.204;6.502;2022-08-04T15:25:44;27.80;72.00
22456;DHT22;11395;53.204;6.502;2022-08-04T15:28:16;27.90;72.10
22456;DHT22;11395;53.204;6.502;2022-08-04T15:30:45;27.90;72.10
22456;DHT22;11395;53.204;6.502;2022-08-04T15:33:13;27.90;72.10
22456;DHT22;11395;53.204;6.502;2022-08-04T15:35:45;27.90;72.00
22456;DHT22;11395;53.204;6.502;2022-08-04T15:38:32;27.90;72.00
22456;DHT22;11395;53.204;6.502;2022-08-04T15:41:29;27.90;72.00
22456;DHT22;11395;53.204;6.502;2022-08-04T15:49:20;27.90;70.80
22456;DHT22;11395;53.204;6.502;2022-08-04T15:52:01;27.90;70.50
22456;DHT22;11395;53.204;6.502;2022-08-04T15:54:29;27.90;70.50
22456;DHT22;11395;53.204;6.502;2022-08-04T15:56:55;27.90;70.60
22456;DHT22;11395;53.204;6.502;2022-08-04T16:00:02;27.90;70.70
22456;DHT22;11395;53.204;6.502;2022-08-04T16:02:40;27.90;70.70
22456;DHT22;11395;53.204;6.502;2022-08-04T16:08:09;27.90;70.70
22456;DHT22;11395;53.204;6.502;2022-08-04T16:13:08;28.00;70.90
22456;DHT22;11395;53.204;6.502;2022-08-04T16:15:40;28.00;70.70
22456;DHT22;11395;53.204;6.502;2022-08-04T16:18:08;28.10;70.40
22456;DHT22;11395;53.204;6.502;2022-08-04T16:20:35;28.00;70.30
22456;DHT22;11395;53.204;6.502;2022-08-04T16:25:54;28.00;70.20
22456;DHT22;11395;53.204;6.502;2022-08-04T16:28:40;28.00;70.30
22456;DHT22;11395;53.204;6.502;2022-08-04T16:31:09;28.00;70.30
22456;DHT22;11395;53.204;6.502;2022-08-04T16:33:38;28.00;70.20
22456;DHT22;11395;53.204;6.502;2022-08-04T16:36:10;28.00;70.20
22456;DHT22;11395;53.204;6.502;2022-08-04T16:38:59;28.10;70.60
22456;DHT22;11395;53.204;6.502;2022-08-04T16:41:39;28.10;70.70
22456;DHT22;11395;53.204;6.502;2022-08-04T16:46:55;28.20;71.00
22456;DHT22;11395;53.204;6.502;2022-08-04T16:49:21;28.30;71.00
22456;DHT22;11395;53.204;6.502;2022-08-04T16:51:48;28.30;71.00
22456;DHT22;11395;53.204;6.502;2022-08-04T16:54:15;28.40;70.70
22456;DHT22;11395;53.204;6.502;2022-08-04T16:56:42;28.40;70.30
22456;DHT22;11395;53.204;6.502;2022-08-04T16:59:10;28.40;69.70
22456;DHT22;11395;53.204;6.502;2022-08-04T17:01:43;28.30;69.50
22456;DHT22;11395;53.204;6.502;2022-08-04T17:04:11;28.30;69.60
22456;DHT22;11395;53.204;6.502;2022-08-04T17:06:39;28.30;69.40
22456;DHT22;11395;53.204;6.502;2022-08-04T17:09:13;28.30;69.40
22456;DHT22;11395;53.204;6.502;2022-08-04T17:11:41;28.20;68.90
22456;DHT22;11395;53.204;6.502;2022-08-04T17:14:07;28.20;68.70
22456;DHT22;11395;53.204;6.502;2022-08-04T17:16:39;28.20;69.20
22456;DHT22;11395;53.204;6.502;2022-08-04T17:19:07;28.10;69.40
22456;DHT22;11395;53.204;6.502;2022-08-04T17:21:35;28.10;69.20
22456;DHT22;11395;53.204;6.502;2022-08-04T17:24:05;28.10;69.80
22456;DHT22;11395;53.204;6.502;2022-08-04T17:26:34;28.00;68.60
22456;DHT22;11395;53.204;6.502;2022-08-04T17:29:01;28.10;68.80
22456;DHT22;11395;53.204;6.502;2022-08-04T17:31:31;28.10;68.80
22456;DHT22;11395;53.204;6.502;2022-08-04T17:34:00;28.00;68.80
22456;DHT22;11395;53.204;6.502;2022-08-04T17:36:30;28.00;68.70
22456;DHT22;11395;53.204;6.502;2022-08-04T17:38:59;28.00;68.80
22456;DHT22;11395;53.204;6.502;2022-08-04T17:41:26;27.90;68.10
22456;DHT22;11395;53.204;6.502;2022-08-04T17:44:01;27.90;68.20
22456;DHT22;11395;53.204;6.502;2022-08-04T17:46:34;27.90;68.30
22456;DHT22;11395;53.204;6.502;2022-08-04T17:51:55;27.80;68.40
22456;DHT22;11395;53.204;6.502;2022-08-04T17:56:55;27.80;67.90
22456;DHT22;11395;53.204;6.502;2022-08-04T17:59:39;27.80;68.00
22456;DHT22;11395;53.204;6.502;2022-08-04T18:02:06;27.80;68.20
22456;DHT22;11395;53.204;6.502;2022-08-04T18:04:53;27.70;68.30
22456;DHT22;11395;53.204;6.502;2022-08-04T18:07:21;27.70;68.10
22456;DHT22;11395;53.204;6.502;2022-08-04T18:09:49;27.70;68.20
22456;DHT22;11395;53.204;6.502;2022-08-04T18:12:29;27.70;68.20
22456;DHT22;11395;53.204;6.502;2022-08-04T18:14:57;27.70;68.00
22456;DHT22;11395;53.204;6.502;2022-08-04T18:17:41;27.70;68.00
22456;DHT22;11395;53.204;6.502;2022-08-04T18:20:10;27.70;68.10
22456;DHT22;11395;53.204;6.502;2022-08-04T18:22:41;27.60;68.00
22456;DHT22;11395;53.204;6.502;2022-08-04T18:25:10;27.60;68.00
22456;DHT22;11395;53.204;6.502;2022-08-04T18:30:14;27.60;67.90
22456;DHT22;11395;53.204;6.502;2022-08-04T18:32:40;27.60;68.20
22456;DHT22;11395;53.204;6.502;2022-08-04T18:35:09;27.50;67.90
22456;DHT22;11395;53.204;6.502;2022-08-04T18:37:39;27.50;67.90
22456;DHT22;11395;53.204;6.502;2022-08-04T18:40:07;27.50;68.80
22456;DHT22;11395;53.204;6.502;2022-08-04T18:42:36;27.50;67.90
22456;DHT22;11395;53.204;6.502;2022-08-04T18:45:03;27.50;67.90
22456;DHT22;11395;53.204;6.502;2022-08-04T18:47:29;27.50;68.00
22456;DHT22;11395;53.204;6.502;2022-08-04T18:50:16;27.50;68.10
22456;DHT22;11395;53.204;6.502;2022-08-04T18:52:42;27.50;68.30
22456;DHT22;11395;53.204;6.502;2022-08-04T18:55:08;27.40;68.10
22456;DHT22;11395;53.204;6.502;2022-08-04T18:57:34;27.40;68.20
22456;DHT22;11395;53.204;6.502;2022-08-04T19:00:01;27.40;68.10
22456;DHT22;11395;53.204;6.502;2022-08-04T19:02:27;27.40;68.20
22456;DHT22;11395;53.204;6.502;2022-08-04T19:04:53;27.30;68.20
22456;DHT22;11395;53.204;6.502;2022-08-04T19:07:19;27.30;68.50
22456;DHT22;11395;53.204;6.502;2022-08-04T19:09:45;27.30;68.40
22456;DHT22;11395;53.204;6.502;2022-08-04T19:12:12;27.30;68.50
22456;DHT22;11395;53.204;6.502;2022-08-04T19:14:38;27.30;68.30
22456;DHT22;11395;53.204;6.502;2022-08-04T19:17:04;27.30;68.30
22456;DHT22;11395;53.204;6.502;2022-08-04T19:19:30;27.30;68.50
22456;DHT22;11395;53.204;6.502;2022-08-04T19:21:57;27.30;68.60
22456;DHT22;11395;53.204;6.502;2022-08-04T19:24:23;27.30;68.70
22456;DHT22;11395;53.204;6.502;2022-08-04T19:26:49;27.20;68.70
22456;DHT22;11395;53.204;6.502;2022-08-04T19:29:15;27.20;68.60
22456;DHT22;11395;53.204;6.502;2022-08-04T19:31:43;27.20;68.80
22456;DHT22;11395;53.204;6.502;2022-08-04T19:34:11;27.20;68.70
22456;DHT22;11395;53.204;6.502;2022-08-04T19:36:37;27.30;68.70
22456;DHT22;11395;53.204;6.502;2022-08-04T19:39:06;27.20;68.80
22456;DHT22;11395;53.204;6.502;2022-08-04T19:41:33;27.20;68.90
22456;DHT22;11395;53.204;6.502;2022-08-04T19:44:03;27.20;69.00
22456;DHT22;11395;53.204;6.502;2022-08-04T19:46:29;27.20;68.90
22456;DHT22;11395;53.204;6.502;2022-08-04T19:48:58;27.20;69.00
22456;DHT22;11395;53.204;6.502;2022-08-04T19:51:28;27.10;68.70
22456;DHT22;11395;53.204;6.502;2022-08-04T19:54:04;27.20;68.70
22456;DHT22;11395;53.204;6.502;2022-08-04T19:56:31;27.10;68.60
22456;DHT22;11395;53.204;6.502;2022-08-04T19:58:57;27.10;68.60
22456;DHT22;11395;53.204;6.502;2022-08-04T20:01:28;27.10;68.60
22456;DHT22;11395;53.204;6.502;2022-08-04T20:03:54;27.10;68.80
22456;DHT22;11395;53.204;6.502;2022-08-04T20:06:20;27.10;68.70
22456;DHT22;11395;53.204;6.502;2022-08-04T20:08:47;27.10;68.80
22456;DHT22;11395;53.204;6.502;2022-08-04T20:11:18;27.00;69.00
22456;DHT22;11395;53.204;6.502;2022-08-04T20:13:46;27.00;68.90
22456;DHT22;11395;53.204;6.502;2022-08-04T20:16:12;27.00;69.00
22456;DHT22;11395;53.204;6.502;2022-08-04T20:18:39;27.00;69.10
22456;DHT22;11395;53.204;6.502;2022-08-04T20:21:08;27.00;69.10
22456;DHT22;11395;53.204;6.502;2022-08-04T20:23:35;27.00;69.10
22456;DHT22;11395;53.204;6.502;2022-08-04T20:26:01;27.00;69.30
22456;DHT22;11395;53.204;6.502;2022-08-04T20:28:30;27.00;70.10
22456;DHT22;11395;53.204;6.502;2022-08-04T20:30:56;27.00;69.20
22456;DHT22;11395;53.204;6.502;2022-08-04T20:33:22;27.00;69.40
22456;DHT22;11395;53.204;6.502;2022-08-04T20:35:51;26.90;69.30
22456;DHT22;11395;53.204;6.502;2022-08-04T20:38:17;27.00;69.30